METAR Data
IDs: Format: Raw Decoded Include TAF

Data at: 0108 UTC 20 Jul 2019

KRZL 200055Z AUTO 20011G18KT 10SM CLR 30/24 A2985 RMK AO2